Time;durP1;ratioP1;P1;durP2;ratioP2;P2;SDS_P1;SDS_P2;PMS_P1;PMS_P2;Temp;Humidity;BMP_temperature;BMP_pressure;BME280_temperature;BME280_humidity;BME280_pressure;Samples;Min_cycle;Max_cycle;Signal;HPM_P1;HPM_P2
2022/05/28 00:00:56;;;;;;;16.35;12.48;;;;;;;19.61;80.63;99766.53;5110797;28;20414;-28
2022/05/28 00:03:23;;;;;;;16.58;12.13;;;;;;;19.89;79.64;99770.31;5110235;28;20063;-34
2022/05/28 00:05:50;;;;;;;18.83;13.00;;;;;;;19.65;80.51;99754.84;5110600;28;20038;-28
2022/05/28 00:08:16;;;;;;;18.45;12.48;;;;;;;19.66;80.76;99759.16;5092110;28;20564;-29
2022/05/28 00:10:43;;;;;;;18.65;13.35;;;;;;;19.92;79.26;99756.22;5110630;28;20034;-31
2022/05/28 00:13:09;;;;;;;16.38;12.93;;;;;;;20.01;78.76;99754.47;5110262;28;20118;-29
2022/05/28 00:15:35;;;;;;;16.55;13.93;;;;;;;20.10;78.78;99767.38;5110185;28;20106;-28
2022/05/28 00:18:01;;;;;;;20.17;12.60;;;;;;;20.10;78.09;99745.72;5091903;28;20388;-28
2022/05/28 00:20:27;;;;;;;17.20;12.75;;;;;;;20.26;78.00;99763.38;5109969;28;20036;-33
2022/05/28 00:22:52;;;;;;;17.48;14.38;;;;;;;20.15;78.54;99767.31;5091828;28;20035;-31
2022/05/28 00:25:19;;;;;;;19.42;13.30;;;;;;;20.12;78.19;99748.94;5109983;28;20054;-30
2022/05/28 00:27:44;;;;;;;18.40;13.02;;;;;;;20.12;79.04;99765.19;5110052;28;20031;-29
2022/05/28 00:30:13;;;;;;;16.27;12.88;;;;;;;20.14;78.71;99757.56;5110052;28;20028;-31
2022/05/28 00:32:40;;;;;;;16.48;14.13;;;;;;;20.04;79.16;99755.78;5110091;28;20101;-28
2022/05/28 00:35:08;;;;;;;17.20;14.10;;;;;;;19.95;79.13;99733.97;5109540;28;20055;-37
2022/05/28 00:37:34;;;;;;;17.85;14.25;;;;;;;19.85;79.68;99747.63;5091524;28;20035;-30
2022/05/28 00:40:06;;;;;;;18.05;14.75;;;;;;;19.76;79.53;99736.66;5109821;28;20070;-28
2022/05/28 00:42:32;;;;;;;20.42;16.80;;;;;;;19.81;79.56;99749.31;5109737;28;20036;-32
2022/05/28 00:44:57;;;;;;;18.60;15.77;;;;;;;19.76;79.76;99742.06;5109696;28;20796;-30
2022/05/28 00:47:24;;;;;;;23.25;15.55;;;;;;;19.73;79.70;99748.03;5109620;28;20096;-33
2022/05/28 00:49:50;;;;;;;18.85;16.45;;;;;;;19.64;79.69;99745.13;5108879;28;20024;-28
2022/05/28 00:52:18;;;;;;;19.98;16.55;;;;;;;19.71;79.62;99742.09;5091157;28;20024;-28
2022/05/28 00:54:47;;;;;;;18.00;15.88;;;;;;;19.72;79.37;99740.22;5091466;28;20028;-33
2022/05/28 00:57:14;;;;;;;18.23;16.30;;;;;;;19.86;78.50;99746.56;5109536;28;20042;-28
2022/05/28 00:59:41;;;;;;;19.42;16.15;;;;;;;19.77;78.12;99727.41;5109663;28;20015;-30
2022/05/28 01:02:21;;;;;;;19.00;16.92;;;;;;;20.05;76.84;99750.09;5109192;28;20061;-28
2022/05/28 01:05:26;;;;;;;18.15;16.27;;;;;;;19.73;77.67;99731.78;5109583;28;20023;-28
2022/05/28 01:08:00;;;;;;;19.30;17.33;;;;;;;19.83;77.47;99747.13;4989623;28;20132;-29
2022/05/28 01:10:37;;;;;;;18.15;16.17;;;;;;;19.83;76.54;99720.06;5093820;28;20071;-32
2022/05/28 01:13:09;;;;;;;20.60;17.30;;;;;;;19.70;76.72;99716.13;5109174;28;20056;-29
2022/05/28 01:15:42;;;;;;;18.88;16.85;;;;;;;19.60;77.29;99722.44;5090780;28;20502;-29
2022/05/28 01:18:13;;;;;;;18.17;16.40;;;;;;;19.64;77.22;99738.91;5074555;28;20154;-33
2022/05/28 01:20:45;;;;;;;19.40;17.17;;;;;;;19.47;78.00;99739.34;5109024;28;20026;-30
2022/05/28 01:23:11;;;;;;;19.67;17.15;;;;;;;19.63;77.48;99750.81;5073797;28;20031;-30
2022/05/28 01:25:50;;;;;;;19.88;17.88;;;;;;;19.59;76.80;99739.75;5109275;28;20491;-34
2022/05/28 01:28:20;;;;;;;18.73;16.75;;;;;;;19.65;76.67;99745.91;5090595;28;20036;-29
2022/05/28 01:30:46;;;;;;;19.55;17.60;;;;;;;19.91;75.36;99732.94;5108711;28;20035;-29
2022/05/28 01:33:15;;;;;;;19.60;17.55;;;;;;;19.65;75.91;99741.31;5108461;28;20503;-29
2022/05/28 01:35:44;;;;;;;19.38;17.42;;;;;;;19.52;76.12;99703.34;5090527;28;20099;-29
2022/05/28 01:38:11;;;;;;;19.75;17.70;;;;;;;19.68;76.25;99745.38;5109280;28;20028;-29
2022/05/28 01:40:39;;;;;;;20.48;17.35;;;;;;;19.35;77.11;99720.00;5108800;28;20050;-30
2022/05/28 01:43:08;;;;;;;19.38;16.90;;;;;;;19.13;78.11;99734.81;5108272;28;20063;-29
2022/05/28 01:45:36;;;;;;;19.20;17.20;;;;;;;19.11;78.01;99736.19;5090119;28;20037;-33
2022/05/28 01:48:03;;;;;;;;;;;;;;;19.47;76.47;99739.34;5108956;28;20031;-28
2022/05/28 01:50:33;;;;;;;19.70;17.75;;;;;;;19.24;76.96;99728.19;5108925;28;19930;-29
2022/05/28 01:53:02;;;;;;;23.80;18.33;;;;;;;19.00;78.40;99717.34;5108562;28;20027;-28
2022/05/28 01:55:29;;;;;;;19.98;17.77;;;;;;;19.24;77.53;99728.19;5090051;28;20514;-29
2022/05/28 01:57:55;;;;;;;21.97;17.63;;;;;;;19.41;76.30;99735.91;5089714;28;20031;-29
2022/05/28 02:00:21;;;;;;;20.63;18.35;;;;;;;19.42;75.89;99721.28;5089918;28;20034;-29
2022/05/28 02:02:46;;;;;;;20.75;18.65;;;;;;;19.75;75.38;99734.22;5108215;28;20034;-29
2022/05/28 02:05:13;;;;;;;19.85;17.90;;;;;;;19.75;74.90;99734.22;5108310;28;20108;-29
2022/05/28 02:07:38;;;;;;;21.00;18.30;;;;;;;19.57;75.18;99733.81;5108317;28;20028;-30
2022/05/28 02:10:12;;;;;;;19.52;17.52;;;;;;;19.24;76.84;99736.31;5108525;28;20036;-33
2022/05/28 02:12:53;;;;;;;23.17;17.85;;;;;;;19.24;75.92;99720.09;5108195;28;20055;-28
2022/05/28 02:15:21;;;;;;;20.73;18.30;;;;;;;19.38;75.79;99722.13;5107833;28;20945;-30
2022/05/28 02:17:50;;;;;;;22.20;19.05;;;;;;;19.51;75.39;99723.34;5108234;28;20092;-28
2022/05/28 02:20:47;;;;;;;22.15;18.40;;;;;;;19.17;76.26;99719.63;5108231;28;20032;-28
2022/05/28 02:23:21;;;;;;;25.23;18.88;;;;;;;18.80;78.18;99709.41;5107606;28;20023;-31
2022/05/28 02:26:13;;;;;;;27.27;19.45;;;;;;;18.94;77.27;99698.75;5108585;28;20043;-29
2022/05/28 02:28:42;;;;;;;30.48;19.25;;;;;;;18.86;77.78;99714.50;5107924;28;20032;-29
2022/05/28 02:31:25;;;;;;;24.63;20.20;;;;;;;19.01;77.02;99720.84;5107821;28;20046;-31
2022/05/28 02:33:51;;;;;;;22.90;20.48;;;;;;;19.14;76.57;99725.59;5107742;28;20028;-32
2022/05/28 02:36:17;;;;;;;26.90;22.08;;;;;;;19.01;76.93;99707.34;5108017;28;20527;-29
2022/05/28 02:38:44;;;;;;;23.23;20.88;;;;;;;18.95;77.18;99709.28;5107629;28;20040;-28
2022/05/28 02:41:09;;;;;;;22.35;20.00;;;;;;;18.89;77.18;99712.31;5088848;28;20107;-31
2022/05/28 02:43:36;;;;;;;24.17;20.60;;;;;;;18.98;76.82;99726.81;5107512;28;20035;-30
2022/05/28 02:46:04;;;;;;;23.10;20.70;;;;;;;18.84;77.03;99719.38;5107522;28;20050;-28
2022/05/28 02:48:30;;;;;;;25.15;20.67;;;;;;;18.80;77.68;99723.72;5088765;28;20031;-29
2022/05/28 02:51:11;;;;;;;21.55;19.40;;;;;;;18.84;78.29;99738.28;5089259;28;20028;-35
2022/05/28 02:53:37;;;;;;;30.73;25.83;;;;;;;19.03;77.53;99707.88;5089170;28;20031;-28
2022/05/28 02:56:03;;;;;;;27.30;24.27;;;;;;;18.86;78.41;99717.19;5089036;28;20050;-29
2022/05/28 02:58:29;;;;;;;37.20;26.05;;;;;;;19.30;76.58;99728.97;5107244;28;20411;-29
2022/05/28 03:00:55;;;;;;;28.23;23.63;;;;;;;19.18;76.46;99747.47;5107279;28;20031;-29
2022/05/28 03:03:21;;;;;;;26.05;23.10;;;;;;;19.05;75.75;99732.72;5089180;28;20028;-29
2022/05/28 03:05:48;;;;;;;30.08;25.90;;;;;;;19.09;76.33;99755.38;5107544;28;20031;-31
2022/05/28 03:08:14;;;;;;;27.50;23.47;;;;;;;18.98;76.65;99756.53;5107714;28;20031;-29
2022/05/28 03:10:39;;;;;;;25.25;22.35;;;;;;;19.03;75.99;99751.91;5088906;28;20518;-29
2022/05/28 03:13:06;;;;;;;24.17;21.60;;;;;;;19.07;76.31;99757.56;5109093;28;20682;-30
2022/05/28 03:15:32;;;;;;;25.27;22.25;;;;;;;18.87;76.81;99734.19;5111300;28;20030;-30
2022/05/28 03:17:59;;;;;;;26.00;22.33;;;;;;;18.61;79.27;99747.03;5111464;28;20027;-29
2022/05/28 03:20:28;;;;;;;25.95;22.08;;;;;;;18.93;77.98;99743.09;5111442;28;20115;-30
2022/05/28 03:22:54;;;;;;;26.60;22.75;;;;;;;19.09;76.78;99747.28;5093073;28;20039;-29
2022/05/28 03:25:20;;;;;;;24.65;20.77;;;;;;;18.70;79.31;99753.47;5092666;28;20024;-32
2022/05/28 03:27:45;;;;;;;24.58;21.92;;;;;;;18.77;78.22;99737.75;5111345;28;20059;-28
2022/05/28 03:30:11;;;;;;;25.45;22.67;;;;;;;18.95;77.72;99762.53;5111490;28;20028;-30
2022/05/28 03:32:37;;;;;;;27.50;22.20;;;;;;;19.18;76.99;99759.06;5092613;28;20027;-29
2022/05/28 03:35:03;;;;;;;24.75;22.15;;;;;;;19.00;76.98;99743.53;5111091;28;20048;-29
2022/05/28 03:37:29;;;;;;;25.10;21.58;;;;;;;19.19;77.26;99760.69;5092576;28;20088;-30
2022/05/28 03:39:55;;;;;;;26.55;23.05;;;;;;;18.83;79.08;99736.66;5110490;28;20036;-28
2022/05/28 03:42:20;;;;;;;26.40;21.65;;;;;;;18.95;79.46;99757.13;5110808;28;20047;-29
2022/05/28 03:44:46;;;;;;;28.52;22.17;;;;;;;19.05;78.54;99760.53;5111168;28;20032;-31
2022/05/28 03:47:12;;;;;;;26.48;22.30;;;;;;;19.26;77.80;99763.88;5110697;28;20031;-29
2022/05/28 03:49:40;;;;;;;26.80;21.90;;;;;;;19.41;76.93;99745.88;5092652;28;20031;-32
2022/05/28 03:52:06;;;;;;;21.38;19.20;;;;;;;19.31;76.57;99754.09;5092300;28;20047;-30
2022/05/28 03:54:31;;;;;;;23.52;20.08;;;;;;;19.57;75.57;99760.88;5111239;28;20063;-30
2022/05/28 03:57:08;;;;;;;23.35;20.55;;;;;;;19.63;76.13;99780.56;5110771;28;20173;-28
2022/05/28 03:59:34;;;;;;;21.83;19.52;;;;;;;19.78;75.21;99782.38;5092549;28;20032;-32
2022/05/28 04:02:00;;;;;;;21.85;19.05;;;;;;;19.73;75.42;99787.81;5110769;28;20062;-28
2022/05/28 04:04:26;;;;;;;20.48;18.33;;;;;;;19.89;74.87;99777.63;5110486;28;20031;-29
2022/05/28 04:06:51;;;;;;;21.25;19.02;;;;;;;20.03;74.94;99792.88;5110706;28;20154;-31
2022/05/28 04:09:17;;;;;;;22.98;20.67;;;;;;;20.19;74.34;99792.72;5110306;28;20030;-29
2022/05/28 04:11:42;;;;;;;23.10;20.52;;;;;;;20.05;75.18;99788.00;5110387;28;20562;-28
2022/05/28 04:14:08;;;;;;;24.90;22.35;;;;;;;20.01;75.11;99786.16;5110512;28;20077;-31
2022/05/28 04:16:34;;;;;;;26.45;23.60;;;;;;;20.19;74.19;99798.13;5110579;28;20083;-29
2022/05/28 04:19:00;;;;;;;29.05;24.02;;;;;;;20.31;73.94;99782.28;5091685;28;20055;-28
2022/05/28 04:21:25;;;;;;;29.88;24.45;;;;;;;20.45;73.51;99796.72;5110349;28;20119;-29
2022/05/28 04:23:51;;;;;;;28.63;23.17;;;;;;;20.42;74.23;99797.28;5109205;28;20024;-29
2022/05/28 04:26:16;;;;;;;25.40;22.27;;;;;;;20.50;74.40;99808.59;5109696;28;20160;-30
2022/05/28 04:28:42;;;;;;;24.40;21.80;;;;;;;20.58;74.87;99807.94;5110371;28;20031;-33
2022/05/28 04:31:07;;;;;;;25.65;23.05;;;;;;;20.17;74.96;99775.97;5109903;28;20039;-30
2022/05/28 04:33:33;;;;;;;26.15;23.27;;;;;;;19.91;76.07;99797.91;5110095;28;20031;-28
2022/05/28 04:35:58;;;;;;;27.83;24.77;;;;;;;19.73;77.94;99779.69;5109741;28;20036;-33
2022/05/28 04:38:24;;;;;;;28.30;23.98;;;;;;;19.82;77.55;99780.69;5110087;28;20054;-29
2022/05/28 04:40:50;;;;;;;26.67;23.88;;;;;;;20.07;77.07;99785.81;5109522;28;20079;-30
2022/05/28 04:43:16;;;;;;;26.05;23.33;;;;;;;20.37;75.38;99789.25;5091481;28;20027;-31
2022/05/28 04:45:41;;;;;;;26.40;23.60;;;;;;;20.56;73.69;99807.41;5091324;28;20095;-29
2022/05/28 04:48:08;;;;;;;27.67;23.42;;;;;;;20.47;74.37;99802.66;5109699;28;20555;-29
2022/05/28 04:50:34;;;;;;;26.52;23.70;;;;;;;20.47;75.22;99808.06;5109919;28;20566;-31
2022/05/28 04:52:59;;;;;;;25.88;23.20;;;;;;;20.79;74.62;99806.56;5109415;28;20103;-31
2022/05/28 04:55:25;;;;;;;32.60;29.15;;;;;;;20.57;75.37;99798.19;5109439;28;20552;-29
2022/05/28 04:57:53;;;;;;;32.95;29.42;;;;;;;20.47;75.48;99799.13;5090963;28;20088;-29
2022/05/28 05:00:21;;;;;;;26.73;24.02;;;;;;;20.30;76.41;99813.16;5109811;28;20035;-32
2022/05/28 05:02:47;;;;;;;;;;;;;;;20.26;77.67;99817.53;5091546;28;20059;-33
2022/05/28 05:05:12;;;;;;;28.08;22.83;;;;;;;20.27;77.92;99800.19;5090981;28;19939;-30
2022/05/28 05:07:38;;;;;;;26.58;23.77;;;;;;;20.57;76.90;99803.59;5109442;28;20067;-33
2022/05/28 05:10:04;;;;;;;25.80;23.23;;;;;;;20.56;75.49;99807.41;5109090;28;20028;-30
2022/05/28 05:12:30;;;;;;;24.60;22.10;;;;;;;20.74;75.21;99820.19;5109630;28;20031;-31
2022/05/28 05:14:55;;;;;;;25.80;22.25;;;;;;;20.69;74.44;99797.78;5109163;28;20028;-28
2022/05/28 05:17:21;;;;;;;24.90;22.30;;;;;;;20.51;76.23;99796.63;5109034;28;20502;-32
2022/05/28 05:19:46;;;;;;;25.60;22.25;;;;;;;20.71;74.48;99796.38;5109056;28;20016;-29
2022/05/28 05:22:12;;;;;;;25.38;22.67;;;;;;;20.91;74.34;99792.56;5109157;28;20038;-29
2022/05/28 05:24:38;;;;;;;24.42;21.77;;;;;;;20.92;73.12;99804.22;5108750;28;20031;-30
2022/05/28 05:27:04;;;;;;;24.40;21.73;;;;;;;20.99;73.71;99789.19;5109029;28;20039;-30
2022/05/28 05:29:30;;;;;;;24.05;21.65;;;;;;;21.28;72.07;99786.28;5108890;28;20020;-29
2022/05/28 05:31:56;;;;;;;23.02;20.73;;;;;;;21.27;72.18;99784.69;5109058;28;20085;-34
2022/05/28 05:34:22;;;;;;;23.60;21.20;;;;;;;21.45;71.88;99801.22;5108926;28;20054;-30
2022/05/28 05:36:47;;;;;;;22.38;20.13;;;;;;;21.21;71.37;99785.88;5108490;28;20035;-28
2022/05/28 05:39:13;;;;;;;21.75;19.45;;;;;;;21.28;72.08;99782.75;5089887;28;20042;-28
2022/05/28 05:41:43;;;;;;;21.73;19.42;;;;;;;21.49;71.68;99802.22;5108566;28;20408;-29
2022/05/28 05:44:09;;;;;;;26.42;20.63;;;;;;;21.67;70.62;99789.72;5108954;28;20052;-31
2022/05/28 05:46:36;;;;;;;21.65;19.27;;;;;;;22.12;69.87;99805.44;5090026;28;20039;-31
2022/05/28 05:49:01;;;;;;;20.85;18.23;;;;;;;22.34;68.72;99808.25;5108581;28;20031;-30
2022/05/28 05:51:28;;;;;;;20.38;18.27;;;;;;;22.44;68.92;99815.41;5108670;28;20759;-30
2022/05/28 05:53:53;;;;;;;21.58;19.40;;;;;;;22.36;68.93;99808.75;5108233;28;20217;-28
2022/05/28 05:56:19;;;;;;;20.75;18.75;;;;;;;22.63;68.31;99817.97;5108682;28;20035;-29
2022/05/28 05:58:44;;;;;;;19.75;17.73;;;;;;;22.68;67.02;99820.59;5108473;28;20023;-31
2022/05/28 06:01:10;;;;;;;22.35;18.77;;;;;;;22.82;66.83;99809.66;5108133;28;20107;-33
2022/05/28 06:03:38;;;;;;;20.85;18.75;;;;;;;22.88;68.93;99803.00;5108252;28;20495;-28
2022/05/28 06:06:05;;;;;;;20.13;17.98;;;;;;;22.85;67.46;99788.09;5108236;28;20118;-29
2022/05/28 06:08:31;;;;;;;20.35;18.10;;;;;;;23.10;66.98;99821.28;5089553;28;20122;-32
2022/05/28 06:10:57;;;;;;;19.55;17.60;;;;;;;23.30;66.14;99821.91;5108669;28;20074;-30
2022/05/28 06:13:23;;;;;;;21.13;18.25;;;;;;;23.13;66.77;99798.91;5107805;28;20051;-32
2022/05/28 06:15:49;;;;;;;21.92;19.60;;;;;;;23.25;66.15;99812.75;5089617;28;20034;-29
2022/05/28 06:18:16;;;;;;;20.10;16.35;;;;;;;23.52;63.71;99804.75;5108096;28;20867;-29
2022/05/28 06:20:42;;;;;;;;;;;;;;;23.78;64.48;99829.41;5089810;28;20032;-28
2022/05/28 06:23:08;;;;;;;17.65;15.93;;;;;;;23.73;64.30;99826.81;5107602;28;20322;-29
2022/05/28 06:25:33;;;;;;;17.10;15.35;;;;;;;24.13;62.89;99824.94;5108220;28;20027;-31
2022/05/28 06:27:59;;;;;;;19.42;17.30;;;;;;;23.87;65.10;99822.09;5107971;28;20045;-30
2022/05/28 06:30:25;;;;;;;17.88;16.10;;;;;;;24.09;63.80;99826.69;5107711;28;20036;-31
2022/05/28 06:32:50;;;;;;;14.85;13.27;;;;;;;24.20;60.93;99829.91;5107916;28;20106;-30
2022/05/28 06:35:16;;;;;;;19.20;15.02;;;;;;;23.95;62.55;99815.88;5107793;28;20028;-31
2022/05/28 06:37:41;;;;;;;16.70;15.00;;;;;;;24.09;62.72;99817.69;5107812;28;20058;-32
2022/05/28 06:40:08;;;;;;;16.92;15.13;;;;;;;24.01;62.92;99801.00;5107949;28;20138;-29
2022/05/28 06:42:34;;;;;;;16.58;14.98;;;;;;;24.06;63.75;99802.78;5089376;28;20049;-33
2022/05/28 06:45:00;;;;;;;19.77;14.98;;;;;;;24.63;60.43;99815.59;5107402;28;20507;-30
2022/05/28 06:47:27;;;;;;;15.77;14.07;;;;;;;24.67;59.79;99811.13;5107046;28;20028;-31
2022/05/28 06:52:36;;;;;;;15.85;13.63;;;;;;;24.80;60.31;99796.50;5107632;28;20035;-31
2022/05/28 06:55:03;;;;;;;14.40;12.93;;;;;;;24.75;60.20;99804.88;5089147;28;20415;-30
2022/05/28 06:57:29;;;;;;;16.63;14.82;;;;;;;24.64;62.80;99784.47;5089017;28;20027;-31
2022/05/28 06:59:54;;;;;;;15.82;13.80;;;;;;;24.77;60.71;99805.34;5107547;28;20059;-29
2022/05/28 07:02:19;;;;;;;15.52;13.93;;;;;;;24.72;59.97;99780.16;5107209;28;20027;-29
2022/05/28 07:04:45;;;;;;;17.58;15.13;;;;;;;24.69;61.39;99797.19;5088949;28;20035;-30
2022/05/28 07:07:11;;;;;;;16.02;13.30;;;;;;;24.64;61.03;99789.94;5107129;28;20031;-30
2022/05/28 07:09:37;;;;;;;18.15;15.02;;;;;;;25.12;59.79;99788.97;5088887;28;20510;-30
2022/05/28 07:12:02;;;;;;;17.27;14.63;;;;;;;25.10;60.97;99796.69;5107206;28;20059;-29
2022/05/28 07:14:28;;;;;;;16.90;15.10;;;;;;;25.48;59.60;99790.53;5107328;28;20419;-29
2022/05/28 07:16:53;;;;;;;20.13;14.27;;;;;;;25.59;58.79;99785.53;5107110;28;20035;-29
2022/05/28 07:19:19;;;;;;;14.95;13.25;;;;;;;25.60;57.99;99763.38;5106697;28;20035;-30
2022/05/28 07:21:44;;;;;;;14.15;12.68;;;;;;;25.65;58.03;99768.63;5107471;28;20031;-29
2022/05/28 07:24:10;;;;;;;15.43;13.25;;;;;;;25.86;57.93;99767.91;5107188;28;20020;-33
2022/05/28 07:26:35;;;;;;;21.00;15.57;;;;;;;26.05;56.46;99765.59;5107306;28;20058;-30
2022/05/28 07:29:00;;;;;;;17.73;13.55;;;;;;;26.34;54.74;99783.09;5107056;28;20031;-29
2022/05/28 07:31:26;;;;;;;16.33;13.15;;;;;;;26.33;55.56;99770.56;5107115;28;20028;-29
2022/05/28 07:33:51;;;;;;;19.25;13.00;;;;;;;26.51;55.77;99765.78;5107206;28;20027;-29
2022/05/28 07:36:22;;;;;;;16.00;12.52;;;;;;;26.54;54.01;99764.28;5107089;28;20030;-32
2022/05/28 07:38:48;;;;;;;14.15;11.85;;;;;;;26.66;53.82;99775.34;5088819;28;20089;-29
2022/05/28 07:41:18;;;;;;;15.95;11.48;;;;;;;26.43;54.30;99767.44;5106636;28;20047;-29
2022/05/28 07:43:44;;;;;;;15.68;11.07;;;;;;;26.73;54.91;99769.34;5107737;28;20056;-35
2022/05/28 07:46:15;;;;;;;16.23;10.75;;;;;;;26.46;53.68;99764.03;5108651;28;20106;-30
2022/05/28 07:48:41;;;;;;;14.95;10.70;;;;;;;26.57;53.12;99763.66;5090018;28;20026;-30
2022/05/28 07:51:07;;;;;;;14.38;10.45;;;;;;;26.60;52.90;99752.06;5107808;28;20085;-29
2022/05/28 07:53:33;;;;;;;13.95;10.18;;;;;;;26.99;52.80;99760.88;5108099;28;20104;-30
2022/05/28 07:56:03;;;;;;;16.98;10.60;;;;;;;26.77;52.07;99751.13;5089464;28;20035;-30
2022/05/28 07:58:29;;;;;;;16.50;11.55;;;;;;;26.94;52.26;99736.47;5090172;28;20031;-28
2022/05/28 08:00:55;;;;;;;13.65;10.60;;;;;;;27.09;51.30;99752.25;5111429;28;20034;-31
2022/05/28 08:03:21;;;;;;;18.27;9.63;;;;;;;27.35;50.34;99760.22;5111588;28;20039;-29
2022/05/28 08:05:49;;;;;;;14.15;10.07;;;;;;;27.71;49.53;99768.84;5111587;28;20033;-29
2022/05/28 08:08:16;;;;;;;16.30;9.90;;;;;;;27.87;50.44;99756.09;5111616;28;20031;-30
2022/05/28 08:10:42;;;;;;;12.80;10.65;;;;;;;28.43;50.66;99753.50;5111541;28;20027;-31
2022/05/28 08:13:11;;;;;;;14.43;9.73;;;;;;;28.58;47.87;99753.94;5111025;28;20410;-31
2022/05/28 08:15:38;;;;;;;12.30;9.18;;;;;;;28.24;45.97;99745.09;5111386;28;20054;-29
2022/05/28 08:18:04;;;;;;;16.85;9.98;;;;;;;28.14;47.44;99737.34;5092770;28;20031;-30
2022/05/28 08:23:14;;;;;;;13.40;9.25;;;;;;;27.76;49.25;99717.34;5111177;28;20058;-29
2022/05/28 08:25:41;;;;;;;14.48;9.98;;;;;;;27.88;49.53;99705.63;5111184;28;20403;-30
2022/05/28 08:28:09;;;;;;;16.42;10.00;;;;;;;28.44;48.72;99689.28;5111484;28;20023;-29
2022/05/28 08:30:35;;;;;;;15.95;8.93;;;;;;;28.77;47.63;99696.50;5111198;28;20042;-31
2022/05/28 08:33:00;;;;;;;11.63;9.00;;;;;;;28.70;47.00;99679.81;5110897;28;20020;-29
2022/05/28 08:35:26;;;;;;;14.50;9.05;;;;;;;28.88;48.70;99674.81;5110840;28;20388;-28
2022/05/28 08:37:51;;;;;;;13.43;8.52;;;;;;;28.77;46.72;99658.09;5110850;28;20035;-29
2022/05/28 08:40:17;;;;;;;13.48;9.18;;;;;;;28.75;46.35;99637.59;5110551;28;20059;-30
2022/05/28 08:42:43;;;;;;;16.02;8.55;;;;;;;28.73;47.62;99637.97;5092329;28;20038;-32
2022/05/28 08:45:13;;;;;;;13.50;9.00;;;;;;;28.70;47.78;99641.41;5110386;28;20019;-31
2022/05/28 08:47:46;;;;;;;15.15;7.88;;;;;;;28.23;47.09;99634.63;5110757;28;20064;-29
2022/05/28 08:50:11;;;;;;;11.32;8.15;;;;;;;27.99;48.68;99599.88;5110648;28;20499;-29
2022/05/28 08:53:02;;;;;;;12.45;8.20;;;;;;;28.15;48.63;99621.06;5092083;28;20020;-32
2022/05/28 08:55:30;;;;;;;11.48;7.78;;;;;;;27.88;48.24;99617.94;5110927;28;20088;-29
2022/05/28 08:58:07;;;;;;;13.38;7.93;;;;;;;28.23;47.60;99617.38;5092123;28;20023;-30
2022/05/28 09:00:41;;;;;;;9.60;7.97;;;;;;;28.99;48.29;99631.19;5110529;28;20028;-29
2022/05/28 09:03:18;;;;;;;12.50;8.75;;;;;;;29.02;45.80;99630.47;5110415;28;20102;-29
2022/05/28 09:05:59;;;;;;;12.07;8.32;;;;;;;29.37;47.71;99618.81;5092069;28;20032;-29
2022/05/28 09:08:34;;;;;;;16.73;8.68;;;;;;;29.59;44.21;99623.63;5110093;28;20035;-30
2022/05/28 09:11:13;;;;;;;13.57;8.32;;;;;;;29.40;47.31;99624.38;5074371;28;20118;-31
2022/05/28 09:13:43;;;;;;;18.10;8.07;;;;;;;29.86;46.62;99618.38;5109951;28;20038;-29
2022/05/28 09:16:25;;;;;;;12.63;7.80;;;;;;;29.60;45.96;99610.69;5091874;28;20031;-32
2022/05/28 09:18:52;;;;;;;11.65;8.35;;;;;;;30.11;46.88;99615.34;5091791;28;20057;-30
2022/05/28 09:21:18;;;;;;;11.20;8.35;;;;;;;30.31;44.59;99611.47;5091219;28;20095;-31
2022/05/28 09:23:50;;;;;;;11.90;8.68;;;;;;;30.34;42.64;99605.25;5091339;28;20027;-37
2022/05/28 09:26:25;;;;;;;13.32;7.88;;;;;;;30.61;42.82;99619.09;5109803;28;20032;-31
2022/05/28 09:29:00;;;;;;;12.13;7.57;;;;;;;30.88;42.82;99616.47;5091560;28;20039;-30
2022/05/28 09:31:33;;;;;;;13.05;7.95;;;;;;;31.14;39.83;99602.75;5109933;28;20066;-30
2022/05/28 09:34:09;;;;;;;14.98;8.25;;;;;;;31.26;42.43;99610.00;5091438;28;20035;-29
2022/05/28 09:36:37;;;;;;;12.83;7.90;;;;;;;31.18;40.46;99619.31;5108518;28;20031;-35
2022/05/28 09:39:08;;;;;;;14.65;8.48;;;;;;;31.38;39.25;99617.25;5108511;28;20509;-32
2022/05/28 09:42:01;;;;;;;17.33;7.55;;;;;;;31.71;40.54;99608.34;5108479;28;20055;-33
2022/05/28 09:44:48;;;;;;;11.75;7.30;;;;;;;31.96;40.72;99614.16;5108438;28;20087;-30
2022/05/28 09:47:18;;;;;;;16.65;7.00;;;;;;;32.53;37.90;99616.84;5074792;28;20030;-29
2022/05/28 09:49:56;;;;;;;15.63;8.38;;;;;;;32.87;37.06;99614.00;5090015;28;20032;-35
2022/05/28 09:52:25;;;;;;;14.27;7.60;;;;;;;32.69;37.54;99622.13;5089749;28;20035;-29
2022/05/28 09:54:50;;;;;;;12.32;7.88;;;;;;;31.81;39.26;99598.59;5108321;28;20024;-34
2022/05/28 09:57:25;;;;;;;12.13;8.02;;;;;;;31.96;39.21;99594.09;5107783;28;20455;-31
2022/05/28 09:59:55;;;;;;;11.27;7.75;;;;;;;32.07;38.13;99613.53;5108194;28;20114;-36
2022/05/28 10:02:21;;;;;;;12.55;7.22;;;;;;;32.31;39.09;99599.25;5108234;28;20023;-33
2022/05/28 10:04:49;;;;;;;12.73;7.63;;;;;;;32.68;38.58;99592.94;5107977;28;20039;-30
2022/05/28 10:07:15;;;;;;;11.77;7.68;;;;;;;32.87;38.72;99585.63;5107579;28;20913;-32
2022/05/28 10:09:50;;;;;;;10.48;7.10;;;;;;;32.99;37.43;99590.84;5089360;28;20499;-33
2022/05/28 10:12:26;;;;;;;15.60;7.53;;;;;;;32.99;36.76;99586.09;5108077;28;20034;-33
2022/05/28 10:15:04;;;;;;;10.75;6.72;;;;;;;33.05;35.38;99589.31;5089563;28;20023;-31
2022/05/28 10:17:31;;;;;;;11.98;6.32;;;;;;;32.52;36.63;99581.31;5089394;28;20053;-30
2022/05/28 10:19:59;;;;;;;11.70;6.35;;;;;;;31.90;36.50;99585.34;5089183;28;20020;-30
2022/05/28 10:22:26;;;;;;;10.02;6.35;;;;;;;31.54;37.63;99564.78;5106560;28;20320;-29
2022/05/28 10:24:59;;;;;;;12.57;7.55;;;;;;;31.50;38.32;99572.97;5089225;28;20024;-31
2022/05/28 10:27:46;;;;;;;11.00;6.95;;;;;;;31.53;36.92;99597.06;5089167;28;20038;-30
2022/05/28 10:30:25;;;;;;;9.10;6.20;;;;;;;31.30;36.77;99604.53;5089206;28;20035;-30
2022/05/28 10:32:52;;;;;;;10.73;6.53;;;;;;;31.19;40.41;99593.38;5107004;28;20047;-29
2022/05/28 10:35:23;;;;;;;13.32;7.55;;;;;;;31.03;40.35;99582.47;5088996;28;20031;-30
2022/05/28 10:37:50;;;;;;;13.18;8.13;;;;;;;30.53;41.68;99579.66;5107388;28;20047;-29
2022/05/28 10:40:15;;;;;;;12.30;7.13;;;;;;;30.25;43.04;99604.63;5107387;28;20104;-31
2022/05/28 10:42:41;;;;;;;10.82;7.07;;;;;;;29.83;42.75;99558.59;5107327;28;20031;-31
2022/05/28 10:45:07;;;;;;;13.20;7.75;;;;;;;30.05;44.21;99598.34;5088624;28;20035;-29
2022/05/28 10:48:22;;;;;;;12.23;7.70;;;;;;;29.78;45.07;99564.41;5088875;28;20036;-29
2022/05/28 10:51:13;;;;;;;11.50;8.25;;;;;;;29.59;45.64;99587.13;5024018;28;20148;-30
2022/05/28 10:54:07;;;;;;;40.72;11.20;;;;;;;29.41;44.83;99581.22;5020747;28;20072;-29
2022/05/28 10:56:47;;;;;;;17.70;8.00;;;;;;;29.30;46.10;99585.66;5092259;28;20055;-31
2022/05/28 10:59:23;;;;;;;13.02;7.88;;;;;;;28.94;45.24;99576.56;5107184;28;20039;-32
2022/05/28 11:02:13;;;;;;;18.55;8.18;;;;;;;28.77;46.75;99575.75;5088839;28;20079;-29
2022/05/28 11:04:48;;;;;;;12.15;8.23;;;;;;;28.76;46.18;99574.16;5107588;28;20580;-30
2022/05/28 11:07:25;;;;;;;13.90;7.90;;;;;;;28.69;47.68;99579.47;5088603;28;20031;-30
2022/05/28 11:10:09;;;;;;;15.48;8.00;;;;;;;28.70;46.38;99581.06;5088672;28;20123;-31
2022/05/28 11:13:06;;;;;;;10.45;7.60;;;;;;;28.61;45.48;99575.75;5088302;28;20399;-29
2022/05/28 11:15:36;;;;;;;11.23;7.93;;;;;;;28.40;46.37;99575.94;5107152;28;20028;-38
2022/05/28 11:18:11;;;;;;;11.80;7.95;;;;;;;28.47;45.90;99566.31;5107042;28;20032;-31
2022/05/28 11:21:01;;;;;;;12.02;7.80;;;;;;;28.18;47.92;99557.31;5106959;28;20807;-31
2022/05/28 11:23:33;;;;;;;14.60;8.40;;;;;;;28.04;47.65;99566.72;5107218;28;20110;-31
2022/05/28 11:26:33;;;;;;;12.13;7.63;;;;;;;27.62;48.95;99556.13;5088589;28;20066;-29
2022/05/28 11:29:07;;;;;;;11.77;7.45;;;;;;;27.44;49.56;99560.22;5106757;28;20487;-35
2022/05/28 11:31:43;;;;;;;13.35;7.70;;;;;;;27.16;50.73;99552.72;5107018;28;20028;-30
2022/05/28 11:34:20;;;;;;;13.90;7.70;;;;;;;27.40;50.59;99553.84;5090461;28;20050;-30